createdAt,value
2018-04-25T00:00:28.571Z,12.70
2018-04-25T00:02:56.106Z,16.17
2018-04-25T00:05:24.388Z,13.20
2018-04-25T00:07:51.926Z,15.40
2018-04-25T00:10:20.256Z,14.80
2018-04-25T00:12:47.774Z,17.10
2018-04-25T00:15:15.402Z,16.53
2018-04-25T00:17:44.374Z,16.07
2018-04-25T00:20:11.883Z,14.03
2018-04-25T00:22:40.167Z,16.00
2018-04-25T00:25:07.738Z,16.50
2018-04-25T00:27:35.342Z,16.47
2018-04-25T00:30:02.869Z,16.63
2018-04-25T00:32:30.479Z,14.03
2018-04-25T00:34:58.013Z,16.47
2018-04-25T00:37:25.670Z,15.70
2018-04-25T00:39:53.219Z,13.13
2018-04-25T00:42:20.732Z,15.07
2018-04-25T00:44:48.244Z,13.00
2018-04-25T00:47:15.778Z,12.73
2018-04-25T00:49:43.296Z,13.77
2018-04-25T00:52:10.806Z,9.47
2018-04-25T00:54:38.354Z,14.60
2018-04-25T00:57:06.638Z,12.17
2018-04-25T00:59:34.162Z,13.43
2018-04-25T01:02:01.711Z,14.23
2018-04-25T01:04:29.264Z,12.70
2018-04-25T01:06:56.787Z,13.37
2018-04-25T01:09:24.337Z,11.23
2018-04-25T01:11:52.788Z,12.77
2018-04-25T01:14:20.255Z,10.80
2018-04-25T01:16:48.593Z,12.03
2018-04-25T01:19:16.135Z,13.23
2018-04-25T01:21:43.683Z,11.40
2018-04-25T01:24:11.235Z,8.97
2018-04-25T01:26:38.754Z,13.60
2018-04-25T01:29:07.202Z,10.87
2018-04-25T01:31:51.404Z,10.07
2018-04-25T01:34:41.490Z,8.97
2018-04-25T01:37:17.391Z,10.10
2018-04-25T01:40:09.556Z,8.17
2018-04-25T01:42:39.939Z,8.90
2018-04-25T01:45:20.161Z,6.13
2018-04-25T01:47:48.618Z,7.03
2018-04-25T01:50:18.615Z,8.37
2018-04-25T01:52:57.879Z,6.83
2018-04-25T01:55:37.127Z,6.30
2018-04-25T01:58:16.463Z,5.60
2018-04-25T02:00:55.715Z,8.60
2018-04-25T02:03:35.125Z,8.20
2018-04-25T02:06:05.682Z,8.13
2018-04-25T02:08:33.183Z,5.83
2018-04-25T02:11:00.726Z,5.03
2018-04-25T02:13:28.239Z,7.07
2018-04-25T02:15:55.785Z,5.77
2018-04-25T02:18:23.310Z,4.93
2018-04-25T02:20:50.814Z,5.37
2018-04-25T02:23:18.315Z,4.30
2018-04-25T02:25:47.381Z,5.33
2018-04-25T02:28:14.887Z,5.80
2018-04-25T02:30:43.155Z,4.23
2018-04-25T02:33:10.702Z,3.77
2018-04-25T02:35:38.250Z,3.80
2018-04-25T02:38:05.754Z,4.53
2018-04-25T02:40:34.058Z,4.97
2018-04-25T02:43:01.595Z,4.90
2018-04-25T02:45:29.120Z,4.83
2018-04-25T02:47:56.639Z,3.73
2018-04-25T02:50:24.164Z,3.10
2018-04-25T02:52:52.446Z,3.60
2018-04-25T02:55:19.975Z,4.83
2018-04-25T02:57:47.510Z,4.17
2018-04-25T03:00:15.056Z,3.70
2018-04-25T03:02:42.567Z,2.87
2018-04-25T03:05:10.082Z,4.13
2018-04-25T03:07:37.602Z,4.87
2018-04-25T03:10:05.887Z,4.00
2018-04-25T03:12:33.414Z,4.17
2018-04-25T03:15:00.950Z,4.37
2018-04-25T03:17:28.477Z,3.83
2018-04-25T03:19:56.749Z,4.77
2018-04-25T03:22:25.067Z,3.60
2018-04-25T03:24:53.068Z,3.80
2018-04-25T03:27:20.578Z,2.80
2018-04-25T03:29:48.650Z,2.50
2018-04-25T03:32:16.175Z,2.03
2018-04-25T03:34:44.442Z,4.33
2018-04-25T03:37:13.483Z,4.37
2018-04-25T03:39:41.039Z,2.53
2018-04-25T03:42:08.555Z,2.20
2018-04-25T03:44:36.072Z,5.23
2018-04-25T03:47:03.606Z,3.27
2018-04-25T03:49:31.130Z,3.93
2018-04-25T03:51:58.658Z,2.80
2018-04-25T03:54:26.182Z,3.70
2018-04-25T03:56:54.488Z,2.97
2018-04-25T03:59:21.986Z,3.17
2018-04-25T04:01:50.022Z,3.07
2018-04-25T04:04:17.576Z,3.97
2018-04-25T04:06:45.098Z,2.60
2018-04-25T04:09:12.630Z,2.50
2018-04-25T04:11:40.163Z,2.60
2018-04-25T04:14:07.676Z,2.90
2018-04-25T04:16:35.182Z,3.13
2018-04-25T04:19:02.717Z,3.50
2018-04-25T04:21:30.234Z,3.80
2018-04-25T04:23:57.742Z,3.07
2018-04-25T04:26:26.042Z,4.33
2018-04-25T04:28:53.546Z,3.03
2018-04-25T04:31:22.025Z,5.37
2018-04-25T04:33:49.565Z,3.63
2018-04-25T04:36:17.071Z,4.63
2018-04-25T04:38:45.962Z,3.37
2018-04-25T04:41:13.504Z,5.37
2018-04-25T04:43:41.032Z,3.97
2018-04-25T04:46:08.534Z,4.20
2018-04-25T04:48:36.074Z,4.93
2018-04-25T04:51:03.597Z,5.03
2018-04-25T04:53:31.117Z,4.40
2018-04-25T04:55:58.697Z,4.80
2018-04-25T04:58:27.026Z,5.73
2018-04-25T05:00:54.566Z,5.40
2018-04-25T05:03:22.132Z,4.90
2018-04-25T05:05:49.687Z,5.67
2018-04-25T05:08:17.200Z,5.07
2018-04-25T05:10:45.530Z,5.20
2018-04-25T05:13:13.133Z,6.40
2018-04-25T05:15:40.579Z,5.07
2018-04-25T05:18:08.133Z,6.07
2018-04-25T05:20:35.635Z,6.57
2018-04-25T05:23:03.222Z,5.67
2018-04-25T05:25:30.750Z,6.47
2018-04-25T05:27:59.079Z,4.87
2018-04-25T05:30:26.583Z,6.53
2018-04-25T05:32:58.306Z,6.20
2018-04-25T05:35:26.012Z,6.73
2018-04-25T05:37:54.343Z,6.37
2018-04-25T05:40:21.899Z,6.93
2018-04-25T05:42:49.404Z,7.27
2018-04-25T05:45:17.539Z,6.80
2018-04-25T05:47:45.082Z,7.33
2018-04-25T05:50:12.612Z,7.73
2018-04-25T05:52:40.930Z,7.97
2018-04-25T05:55:08.488Z,8.60
2018-04-25T05:57:36.093Z,9.53
2018-04-25T06:00:03.641Z,9.13
2018-04-25T06:02:31.146Z,7.57
2018-04-25T06:04:58.679Z,8.23
2018-04-25T06:07:26.289Z,8.07
2018-04-25T06:09:53.850Z,6.97
2018-04-25T06:12:21.419Z,8.23
2018-04-25T06:14:48.915Z,7.77
2018-04-25T06:17:16.493Z,7.87
2018-04-25T06:19:44.785Z,8.97
2018-04-25T06:22:12.297Z,9.63
2018-04-25T06:24:39.807Z,8.83
2018-04-25T06:27:08.231Z,9.23
2018-04-25T06:29:35.733Z,8.50
2018-04-25T06:32:03.979Z,9.00
2018-04-25T06:34:32.028Z,11.60
2018-04-25T06:36:59.543Z,10.03
2018-04-25T06:39:27.865Z,9.73
2018-04-25T06:41:55.431Z,10.47
2018-04-25T06:44:22.927Z,9.37
2018-04-25T06:46:50.458Z,8.27
2018-04-25T06:49:18.047Z,10.27
2018-04-25T06:51:45.553Z,8.87
2018-04-25T06:54:13.079Z,7.00
2018-04-25T06:56:40.719Z,9.77
2018-04-25T06:59:08.185Z,10.93
2018-04-25T07:01:35.715Z,11.77
2018-04-25T07:04:04.037Z,9.10
2018-04-25T07:06:31.600Z,8.20
2018-04-25T07:08:59.884Z,9.77
2018-04-25T07:11:28.183Z,8.77
2018-04-25T07:13:55.703Z,10.40
2018-04-25T07:16:23.228Z,9.13
2018-04-25T07:18:50.789Z,8.83
2018-04-25T07:21:18.299Z,8.63
2018-04-25T07:23:45.909Z,10.43
2018-04-25T07:26:14.204Z,7.57
2018-04-25T07:28:41.777Z,7.77
2018-04-25T07:31:09.284Z,8.97
2018-04-25T07:33:36.824Z,6.77
2018-04-25T07:36:04.361Z,6.57
2018-04-25T07:38:31.890Z,4.20
2018-04-25T07:40:59.410Z,6.77
2018-04-25T07:43:27.141Z,6.97
2018-04-25T07:45:54.698Z,7.97
2018-04-25T07:48:22.208Z,8.17
2018-04-25T07:50:49.743Z,6.73
2018-04-25T07:53:17.291Z,6.97
2018-04-25T07:55:44.808Z,9.10
2018-04-25T07:58:12.367Z,7.67
2018-04-25T08:00:39.890Z,6.63
2018-04-25T08:03:08.165Z,7.10
2018-04-25T08:05:35.698Z,7.30
2018-04-25T08:08:03.212Z,8.97
2018-04-25T08:10:30.728Z,6.77
2018-04-25T08:13:10.052Z,6.43
2018-04-25T08:15:49.234Z,5.03
2018-04-25T08:18:28.634Z,7.97
2018-04-25T08:23:59.871Z,7.50
2018-04-25T08:26:27.393Z,6.50
2018-04-25T08:28:55.676Z,5.17
2018-04-25T08:31:23.965Z,9.77
2018-04-25T08:33:51.478Z,4.80
2018-04-25T08:36:19.059Z,5.03
2018-04-25T08:38:46.595Z,6.03
2018-04-25T08:41:14.106Z,8.43
2018-04-25T08:43:41.631Z,7.57
2018-04-25T08:46:09.156Z,7.50
2018-04-25T08:48:36.679Z,8.87
2018-04-25T08:51:05.006Z,10.13
2018-04-25T08:53:32.559Z,7.10
2018-04-25T08:56:00.075Z,6.10
2018-04-25T08:58:27.605Z,6.57
2018-04-25T09:00:55.101Z,6.63
2018-04-25T09:03:23.365Z,7.63
2018-04-25T09:05:51.051Z,6.97
2018-04-25T09:08:18.527Z,6.70
2018-04-25T09:10:46.085Z,6.70
2018-04-25T09:13:13.701Z,5.57
2018-04-25T09:15:41.161Z,6.97
2018-04-25T09:18:08.664Z,6.83
2018-04-25T09:20:36.201Z,8.17
2018-04-25T09:23:03.739Z,8.70
2018-04-25T09:25:31.262Z,7.73
2018-04-25T09:27:58.804Z,7.90
2018-04-25T09:30:26.310Z,8.13
2018-04-25T09:32:55.376Z,8.83
2018-04-25T09:35:22.963Z,5.43
2018-04-25T09:37:50.483Z,7.07
2018-04-25T09:40:18.050Z,8.37
2018-04-25T09:42:45.546Z,8.30
2018-04-25T09:45:13.067Z,7.27
2018-04-25T09:47:40.598Z,7.50
2018-04-25T09:50:08.157Z,8.40
2018-04-25T09:52:36.426Z,7.37
2018-04-25T09:55:03.940Z,7.93
2018-04-25T09:57:31.556Z,8.60
2018-04-25T09:59:59.006Z,7.80
2018-04-25T10:02:32.190Z,9.93
2018-04-25T10:04:59.730Z,8.47
2018-04-25T10:07:27.243Z,7.07
2018-04-25T10:09:54.842Z,8.50
2018-04-25T10:12:22.423Z,9.30
2018-04-25T10:14:50.417Z,8.70
2018-04-25T10:17:18.044Z,9.33
2018-04-25T10:19:45.973Z,6.70
2018-04-25T10:22:13.487Z,9.70
2018-04-25T10:24:41.043Z,9.10
2018-04-25T10:27:08.551Z,8.80
2018-04-25T10:29:36.088Z,7.83
2018-04-25T10:32:03.682Z,8.77
2018-04-25T10:34:31.185Z,8.53
2018-04-25T10:36:58.709Z,8.60
2018-04-25T10:39:26.231Z,9.10
2018-04-25T10:41:53.743Z,6.83
2018-04-25T10:44:21.293Z,8.43
2018-04-25T10:46:48.826Z,8.60
2018-04-25T10:49:17.160Z,8.50
2018-04-25T10:51:44.679Z,7.67
2018-04-25T10:54:12.247Z,4.80
2018-04-25T10:56:39.835Z,5.63
2018-04-25T10:59:07.345Z,3.70
2018-04-25T11:01:34.891Z,4.10
2018-04-25T11:04:02.400Z,5.57
2018-04-25T11:06:29.930Z,4.77
2018-04-25T11:08:57.501Z,3.40
2018-04-25T11:11:25.043Z,3.50
2018-04-25T11:13:53.353Z,4.70
2018-04-25T11:16:20.877Z,3.33
2018-04-25T11:18:48.387Z,5.70
2018-04-25T11:21:15.936Z,7.10
2018-04-25T11:23:43.478Z,4.20
2018-04-25T11:26:11.047Z,4.53
2018-04-25T11:28:38.558Z,2.93
2018-04-25T11:31:06.095Z,3.60
2018-04-25T11:33:33.613Z,5.60
2018-04-25T11:36:01.159Z,4.60
2018-04-25T11:38:28.706Z,4.23
2018-04-25T11:40:56.256Z,3.63
2018-04-25T11:43:23.845Z,3.70
2018-04-25T11:45:51.364Z,7.03
2018-04-25T11:48:18.900Z,6.67
2018-04-25T11:50:46.446Z,6.13
2018-04-25T11:53:14.004Z,3.83
2018-04-25T11:55:41.517Z,3.53
2018-04-25T11:58:09.051Z,4.03
2018-04-25T12:00:36.570Z,2.90
2018-04-25T12:03:04.076Z,3.40
2018-04-25T12:05:31.618Z,5.57
2018-04-25T12:07:59.150Z,3.37
2018-04-25T12:10:27.430Z,3.40
2018-04-25T12:12:54.945Z,3.50
2018-04-25T12:15:22.657Z,3.53
2018-04-25T12:17:50.193Z,3.20
2018-04-25T12:20:17.917Z,4.57
2018-04-25T12:22:45.438Z,3.50
2018-04-25T12:25:13.714Z,4.27
2018-04-25T12:27:41.231Z,6.13
2018-04-25T12:30:08.750Z,4.13
2018-04-25T12:32:37.043Z,4.43
2018-04-25T12:35:04.564Z,4.57
2018-04-25T12:37:32.094Z,5.23
2018-04-25T12:39:59.604Z,4.43
2018-04-25T12:42:27.143Z,4.40
2018-04-25T12:44:55.043Z,4.00
2018-04-25T12:47:22.567Z,5.27
2018-04-25T12:49:50.072Z,3.40
2018-04-25T12:52:17.638Z,4.00
2018-04-25T12:54:45.162Z,5.30
2018-04-25T12:57:13.431Z,4.77
2018-04-25T12:59:40.969Z,3.27
2018-04-25T13:02:08.486Z,5.93
2018-04-25T13:04:36.022Z,4.80
2018-04-25T13:07:03.636Z,5.53
2018-04-25T13:09:31.142Z,4.07
2018-04-25T13:11:59.436Z,4.27
2018-04-25T13:14:26.965Z,5.57
2018-04-25T13:16:54.472Z,3.80
2018-04-25T13:19:22.805Z,3.77
2018-04-25T13:21:50.384Z,4.60
2018-04-25T13:24:17.936Z,3.80
2018-04-25T13:26:46.229Z,3.63
2018-04-25T13:29:13.750Z,5.77
2018-04-25T13:31:41.253Z,4.43
2018-04-25T13:34:09.595Z,3.93
2018-04-25T13:36:37.095Z,4.57
2018-04-25T13:39:04.614Z,4.80
2018-04-25T13:41:32.180Z,5.80
2018-04-25T13:43:59.733Z,5.50
2018-04-25T13:46:27.258Z,4.63
2018-04-25T13:48:54.786Z,4.10
2018-04-25T13:51:23.063Z,3.17
2018-04-25T13:53:50.565Z,4.23
2018-04-25T13:56:18.146Z,3.67
2018-04-25T13:58:45.658Z,3.23
2018-04-25T14:01:13.927Z,3.33
2018-04-25T14:03:41.521Z,2.90
2018-04-25T14:06:09.108Z,2.83
2018-04-25T14:08:36.622Z,3.37
2018-04-25T14:11:04.732Z,4.33
2018-04-25T14:13:32.246Z,4.47
2018-04-25T14:15:59.762Z,4.53
2018-04-25T14:18:27.307Z,3.47
2018-04-25T14:20:54.818Z,5.23
2018-04-25T14:23:23.294Z,3.50
2018-04-25T14:25:50.811Z,4.23
2018-04-25T14:28:18.436Z,4.43
2018-04-25T14:30:45.983Z,3.13
2018-04-25T14:33:14.287Z,3.23
2018-04-25T14:35:41.811Z,3.47
2018-04-25T14:38:09.343Z,2.93
2018-04-25T14:40:36.847Z,5.40
2018-04-25T14:43:04.371Z,3.13
2018-04-25T14:45:31.947Z,3.13
2018-04-25T14:47:59.482Z,4.13
2018-04-25T14:50:27.001Z,8.03
2018-04-25T14:52:54.562Z,4.33
2018-04-25T14:55:22.155Z,5.70
2018-04-25T14:57:49.664Z,4.87
2018-04-25T15:00:17.202Z,5.60
2018-04-25T15:02:44.710Z,5.23
2018-04-25T15:05:13.038Z,5.00
2018-04-25T15:07:40.591Z,5.23
2018-04-25T15:10:08.095Z,8.07
2018-04-25T15:12:36.408Z,4.17
2018-04-25T15:15:03.958Z,5.30
2018-04-25T15:17:31.466Z,4.70
2018-04-25T15:19:59.101Z,5.60
2018-04-25T15:22:26.587Z,6.57
2018-04-25T15:24:55.794Z,6.80
2018-04-25T15:27:23.333Z,3.80
2018-04-25T15:29:50.849Z,5.90
2018-04-25T15:32:18.420Z,5.13
2018-04-25T15:34:45.968Z,5.47
2018-04-25T15:37:13.491Z,4.07
2018-04-25T15:39:41.036Z,5.83
2018-04-25T15:42:09.348Z,3.87
2018-04-25T15:44:36.862Z,5.73
2018-04-25T15:47:04.414Z,4.30
2018-04-25T15:49:32.042Z,5.20
2018-04-25T15:52:00.326Z,4.90
2018-04-25T15:54:28.681Z,3.77
2018-04-25T15:56:56.203Z,5.97
2018-04-25T15:59:23.750Z,6.27
2018-04-25T16:01:51.281Z,4.13
2018-04-25T16:04:18.844Z,5.57
2018-04-25T16:06:47.120Z,3.23
2018-04-25T16:09:14.656Z,2.43
2018-04-25T16:11:42.165Z,5.87
2018-04-25T16:14:09.679Z,4.80
2018-04-25T16:16:37.199Z,4.13
2018-04-25T16:19:04.713Z,5.40
2018-04-25T16:21:32.253Z,4.93
2018-04-25T16:23:59.772Z,6.93
2018-04-25T16:26:27.278Z,3.30
2018-04-25T16:28:54.800Z,4.17
2018-04-25T16:31:22.322Z,6.73
2018-04-25T16:33:49.849Z,5.67
2018-04-25T16:36:17.395Z,3.77
2018-04-25T16:38:44.932Z,4.57
2018-04-25T16:41:12.567Z,6.00
2018-04-25T16:43:40.872Z,3.37
2018-04-25T16:46:08.423Z,4.10
2018-04-25T16:48:35.949Z,6.33
2018-04-25T16:51:03.472Z,6.67
2018-04-25T16:53:31.023Z,5.10
2018-04-25T16:55:58.646Z,5.10
2018-04-25T16:58:26.156Z,5.63
2018-04-25T17:00:53.733Z,6.13
2018-04-25T17:03:21.252Z,6.37
2018-04-25T17:05:50.467Z,5.20
2018-04-25T17:08:18.201Z,4.80
2018-04-25T17:10:45.724Z,5.77
2018-04-25T17:13:13.286Z,6.20
2018-04-25T17:15:40.832Z,4.87
2018-04-25T17:18:08.422Z,4.67
2018-04-25T17:20:35.967Z,6.47
2018-04-25T17:23:03.573Z,7.13
2018-04-25T17:25:31.063Z,6.77
2018-04-25T17:27:58.595Z,5.23
2018-04-25T17:30:26.106Z,13.00
2018-04-25T17:32:53.669Z,6.03
2018-04-25T17:35:21.238Z,5.90
2018-04-25T17:37:48.804Z,6.20
2018-04-25T17:40:16.330Z,5.47
2018-04-25T17:42:43.879Z,6.43
2018-04-25T17:45:11.404Z,5.77
2018-04-25T17:47:39.714Z,7.00
2018-04-25T17:50:07.242Z,4.20
2018-04-25T17:52:35.515Z,6.13
2018-04-25T17:55:03.126Z,6.20
2018-04-25T17:57:30.655Z,7.30
2018-04-25T17:59:58.161Z,7.80
2018-04-25T18:02:25.734Z,5.10
2018-04-25T18:04:53.326Z,7.07
2018-04-25T18:07:20.863Z,6.57
2018-04-25T18:09:49.980Z,4.80
2018-04-25T18:12:18.253Z,7.43
2018-04-25T18:14:45.785Z,7.10
2018-04-25T18:17:14.123Z,5.63
2018-04-25T18:19:41.639Z,7.10
2018-04-25T18:22:09.176Z,7.87
2018-04-25T18:24:36.698Z,5.90
2018-04-25T18:27:04.257Z,7.13
2018-04-25T18:29:31.782Z,5.57
2018-04-25T18:31:59.345Z,10.10
2018-04-25T18:34:26.855Z,8.40
2018-04-25T18:36:55.289Z,7.10
2018-04-25T18:39:22.829Z,11.63
2018-04-25T18:41:50.362Z,10.97
2018-04-25T18:44:17.890Z,7.30
2018-04-25T18:46:46.135Z,10.37
2018-04-25T18:49:13.707Z,10.77
2018-04-25T18:51:41.223Z,9.37
2018-04-25T18:54:08.886Z,10.40
2018-04-25T18:56:36.426Z,12.23
2018-04-25T18:59:03.987Z,10.87
2018-04-25T19:01:31.543Z,10.70
2018-04-25T19:03:59.067Z,11.60
2018-04-25T19:06:26.581Z,9.47
2018-04-25T19:08:54.512Z,14.20
2018-04-25T19:11:22.841Z,11.93
2018-04-25T19:13:50.354Z,14.27
2018-04-25T19:16:18.650Z,12.27
2018-04-25T19:18:46.276Z,11.07
2018-04-25T19:21:13.800Z,12.70
2018-04-25T19:23:41.360Z,10.40
2018-04-25T19:26:08.875Z,11.73
2018-04-25T19:28:37.195Z,10.30
2018-04-25T19:31:04.731Z,10.77
2018-04-25T19:33:32.284Z,11.33
2018-04-25T19:35:59.859Z,12.93
2018-04-25T19:38:27.404Z,12.47
2018-04-25T19:40:55.717Z,12.33
2018-04-25T19:43:23.232Z,12.30
2018-04-25T19:45:50.821Z,15.33
2018-04-25T19:48:18.413Z,11.17
2018-04-25T19:50:45.930Z,8.40
2018-04-25T19:53:14.247Z,11.93
2018-04-25T19:55:42.470Z,10.13
2018-04-25T19:58:10.459Z,9.43
2018-04-25T20:00:38.011Z,7.23
2018-04-25T20:03:05.590Z,10.43
2018-04-25T20:05:33.141Z,8.40
2018-04-25T20:08:01.500Z,10.77
2018-04-25T20:10:29.823Z,8.73
2018-04-25T20:12:57.330Z,6.87
2018-04-25T20:15:24.938Z,7.40
2018-04-25T20:17:52.515Z,7.80
2018-04-25T20:20:20.027Z,9.07
2018-04-25T20:22:47.609Z,5.93
2018-04-25T20:25:15.943Z,7.90
2018-04-25T20:27:43.580Z,8.83
2018-04-25T20:30:11.117Z,9.70
2018-04-25T20:32:38.633Z,8.07
2018-04-25T20:35:06.145Z,9.93
2018-04-25T20:37:33.668Z,7.40
2018-04-25T20:40:01.186Z,9.17
2018-04-25T20:42:28.715Z,5.73
2018-04-25T20:44:56.291Z,7.83
2018-04-25T20:47:23.793Z,8.07
2018-04-25T20:49:51.330Z,7.93
2018-04-25T20:52:18.888Z,9.50
2018-04-25T20:54:46.476Z,10.30
2018-04-25T20:57:14.166Z,8.87
2018-04-25T20:59:42.458Z,9.57
2018-04-25T21:02:10.011Z,4.53
2018-04-25T21:04:38.335Z,8.53
2018-04-25T21:07:05.849Z,8.53
2018-04-25T21:09:34.118Z,7.77
2018-04-25T21:12:01.677Z,6.93
2018-04-25T21:14:29.200Z,6.70
2018-04-25T21:16:57.495Z,8.53
2018-04-25T21:19:25.035Z,7.37
2018-04-25T21:21:53.395Z,8.90
2018-04-25T21:24:20.931Z,8.37
2018-04-25T21:26:48.481Z,7.23
2018-04-25T21:29:16.810Z,6.93
2018-04-25T21:31:44.343Z,8.93
2018-04-25T21:34:11.883Z,8.63
2018-04-25T21:36:40.125Z,8.90
2018-04-25T21:39:07.659Z,7.80
2018-04-25T21:41:35.240Z,10.17
2018-04-25T21:44:03.460Z,9.37
2018-04-25T21:46:31.039Z,7.47
2018-04-25T21:48:58.571Z,11.67
2018-04-25T21:51:26.108Z,9.80
2018-04-25T21:53:53.647Z,9.43
2018-04-25T21:56:21.166Z,11.10
2018-04-25T21:58:49.472Z,6.23
2018-04-25T22:01:16.991Z,9.83
2018-04-25T22:03:44.624Z,9.63
2018-04-25T22:06:12.132Z,11.77
2018-04-25T22:08:40.394Z,8.87
2018-04-25T22:11:07.961Z,10.53
2018-04-25T22:13:35.517Z,10.33
2018-04-25T22:16:03.057Z,8.63
2018-04-25T22:18:30.647Z,12.90
2018-04-25T22:20:58.920Z,10.90
2018-04-25T22:23:26.431Z,11.60
2018-04-25T22:25:54.043Z,7.40
2018-04-25T22:28:22.326Z,9.87
2018-04-25T22:30:49.859Z,9.90
2018-04-25T22:33:17.443Z,8.20
2018-04-25T22:35:44.972Z,9.83
2018-04-25T22:38:12.553Z,8.47
2018-04-25T22:40:40.091Z,10.93
2018-04-25T22:43:07.607Z,11.60
2018-04-25T22:45:35.122Z,8.33
2018-04-25T22:48:02.651Z,9.53
2018-04-25T22:50:30.173Z,8.40
2018-04-25T22:52:57.674Z,6.33
2018-04-25T22:55:25.198Z,10.23
2018-04-25T22:57:52.746Z,9.80
2018-04-25T23:00:21.055Z,10.03
2018-04-25T23:02:48.576Z,9.97
2018-04-25T23:05:16.318Z,12.80
2018-04-25T23:07:44.052Z,4.87
2018-04-25T23:10:11.594Z,9.07
2018-04-25T23:12:39.133Z,12.43
2018-04-25T23:15:07.435Z,12.53
2018-04-25T23:17:35.697Z,7.77
2018-04-25T23:20:03.207Z,8.70
2018-04-25T23:22:30.735Z,11.70
2018-04-25T23:24:58.418Z,9.30
2018-04-25T23:27:25.925Z,9.67
2018-04-25T23:29:53.459Z,11.90
2018-04-25T23:32:20.967Z,9.73
2018-04-25T23:34:48.509Z,8.97
2018-04-25T23:37:16.030Z,8.37
2018-04-25T23:39:44.206Z,12.90
2018-04-25T23:42:12.355Z,13.97
2018-04-25T23:44:39.890Z,10.77
2018-04-25T23:47:08.184Z,9.87
2018-04-25T23:49:35.736Z,12.60
2018-04-25T23:52:03.997Z,10.90
2018-04-25T23:54:32.291Z,12.33
2018-04-25T23:56:59.854Z,11.57
2018-04-25T23:59:27.385Z,13.20
